Time;durP1;ratioP1;P1;durP2;ratioP2;P2;SDS_P1;SDS_P2;PMS_P1;PMS_P2;Temp;Humidity;BMP_temperature;BMP_pressure;BME280_temperature;BME280_humidity;BME280_pressure;Samples;Min_cycle;Max_cycle;Signal;HPM_P1;HPM_P2
2023/10/17 00:00:25;;;;;;;17.67;10.00;;;;;;;19.97;100.00;101235.69;20979851;28;20052;-76
2023/10/17 00:10:50;;;;;;;17.73;10.75;;;;;;;19.95;100.00;101232.16;20960834;28;20045;-76
2023/10/17 00:21:20;;;;;;;17.63;10.25;;;;;;;19.85;100.00;101237.66;20973575;28;20055;-76
2023/10/17 00:31:46;;;;;;;16.60;10.65;;;;;;;19.87;100.00;101235.84;20899609;28;20057;-76
2023/10/17 00:42:29;;;;;;;16.90;10.00;;;;;;;19.86;100.00;101235.88;20941732;28;20076;-76
2023/10/17 00:52:55;;;;;;;15.25;9.75;;;;;;;19.86;100.00;101236.75;20976945;28;20065;-75
2023/10/17 01:14:56;;;;;;;15.57;9.07;;;;;;;20.25;100.00;101254.00;20982839;28;20119;-76
2023/10/17 01:25:25;;;;;;;19.38;9.35;;;;;;;20.27;100.00;101251.31;20959016;28;20131;-76
2023/10/17 01:35:47;;;;;;;21.63;10.30;;;;;;;20.16;100.00;101253.25;20968192;28;20057;-76
2023/10/17 01:46:14;;;;;;;14.52;9.52;;;;;;;20.14;100.00;101261.34;20947879;28;20143;-76
2023/10/17 01:56:39;;;;;;;15.45;10.80;;;;;;;20.26;100.00;101257.56;20970433;28;20070;-76
2023/10/17 02:07:04;;;;;;;24.85;11.10;;;;;;;20.32;100.00;101265.53;20942165;28;20052;-76
2023/10/17 02:17:27;;;;;;;17.73;10.90;;;;;;;20.41;100.00;101275.25;20900381;28;20051;-76
2023/10/17 02:27:51;;;;;;;17.70;10.90;;;;;;;20.53;100.00;101280.41;20954826;28;20056;-76
2023/10/17 02:38:15;;;;;;;21.63;11.85;;;;;;;20.65;100.00;101294.50;20968882;28;20056;-75
2023/10/17 02:48:39;;;;;;;22.20;11.90;;;;;;;20.69;100.00;101304.25;20999716;28;20633;-75
2023/10/17 02:59:06;;;;;;;18.60;11.75;;;;;;;20.70;100.00;101302.47;20960762;28;20057;-75
2023/10/17 03:09:39;;;;;;;19.30;11.07;;;;;;;20.69;100.00;101304.25;20952476;28;20136;-75
2023/10/17 03:20:09;;;;;;;22.92;12.82;;;;;;;20.63;100.00;101309.72;20965254;28;20053;-75
2023/10/17 03:30:33;;;;;;;25.95;13.15;;;;;;;20.62;100.00;101317.78;20951530;28;20044;-76
2023/10/17 03:41:02;;;;;;;22.23;12.55;;;;;;;20.59;100.00;101312.50;20964156;28;20140;-75
2023/10/17 03:51:26;;;;;;;23.55;12.95;;;;;;;20.56;100.00;101323.25;20951794;28;20102;-76
2023/10/17 04:01:49;;;;;;;26.05;14.10;;;;;;;20.49;100.00;101321.59;20964117;28;20401;-75
2023/10/17 04:12:20;;;;;;;25.67;14.55;;;;;;;20.51;100.00;101342.13;20950513;28;20132;-75
2023/10/17 04:22:44;;;;;;;25.95;13.75;;;;;;;20.57;100.00;101346.50;20976497;28;20084;-76
2023/10/17 04:33:12;;;;;;;26.67;14.30;;;;;;;20.60;100.00;101347.34;20977471;28;20044;-75
2023/10/17 04:54:31;;;;;;;21.48;13.18;;;;;;;20.75;100.00;101366.78;20963591;28;20041;-76
2023/10/17 06:19:46;;;;;;;16.38;9.27;;;;;;;21.94;100.00;101457.75;20949657;28;20044;-75
2023/10/17 06:30:29;;;;;;;15.90;8.55;;;;;;;22.55;100.00;101464.53;20952484;28;20637;-75
2023/10/17 06:40:53;;;;;;;17.33;7.57;;;;;;;22.81;100.00;101488.22;20968142;28;20052;-75
2023/10/17 06:51:35;;;;;;;13.35;7.20;;;;;;;23.07;100.00;101484.91;21008232;28;20055;-76
2023/10/17 07:02:16;;;;;;;17.38;8.10;;;;;;;23.94;100.00;101483.53;20940468;28;20048;-76
2023/10/17 07:12:38;;;;;;;17.83;6.78;;;;;;;23.83;100.00;101482.00;20909658;28;20049;-76
2023/10/17 07:23:13;;;;;;;18.95;8.18;;;;;;;24.03;100.00;101477.88;20969009;28;20477;-77
2023/10/17 07:33:36;;;;;;;13.77;7.95;;;;;;;23.88;100.00;101481.00;20930581;28;20045;-76
2023/10/17 07:44:08;;;;;;;16.63;7.28;;;;;;;24.11;100.00;101492.03;20957792;28;20048;-76
2023/10/17 07:54:31;;;;;;;14.38;7.25;;;;;;;24.13;100.00;101492.88;20897107;28;20068;-76
2023/10/17 08:04:55;;;;;;;15.02;7.97;;;;;;;24.48;100.00;101491.88;20904279;28;20045;-76
2023/10/17 08:15:22;;;;;;;14.40;6.47;;;;;;;24.54;100.00;101492.59;20950367;28;20468;-76
2023/10/17 08:25:54;;;;;;;16.92;7.70;;;;;;;24.79;100.00;101494.53;20933151;28;20052;-76
2023/10/17 08:36:16;;;;;;;14.95;6.82;;;;;;;25.08;100.00;101490.91;20976566;28;20046;-76
2023/10/17 08:46:40;;;;;;;14.65;6.18;;;;;;;25.61;100.00;101495.41;20948349;28;20051;-76
2023/10/17 08:57:03;;;;;;;13.13;6.72;;;;;;;26.48;100.00;101494.94;20961939;28;20043;-77
2023/10/17 09:07:32;;;;;;;11.85;5.93;;;;;;;26.69;100.00;101480.56;20960535;28;20052;-76
2023/10/17 09:18:07;;;;;;;11.25;5.88;;;;;;;26.80;100.00;101478.31;20961518;28;20044;-75
2023/10/17 09:28:32;;;;;;;11.65;5.85;;;;;;;27.31;100.00;101467.16;20978334;28;20072;-75
2023/10/17 09:38:57;;;;;;;13.48;6.45;;;;;;;27.36;100.00;101465.16;20935953;28;20393;-76
2023/10/17 09:49:25;;;;;;;11.32;6.13;;;;;;;27.77;100.00;101455.22;20909372;28;20144;-75
2023/10/17 10:00:02;;;;;;;12.68;5.55;;;;;;;28.07;100.00;101433.97;20935751;28;20103;-76
2023/10/17 10:10:53;;;;;;;9.30;4.82;;;;;;;28.23;96.50;101422.38;20919880;28;20045;-76
2023/10/17 10:21:15;;;;;;;12.52;5.85;;;;;;;28.01;96.86;101422.50;20886184;28;20049;-75
2023/10/17 10:31:40;;;;;;;12.93;5.82;;;;;;;28.03;93.49;101417.84;20923722;28;20548;-74
2023/10/17 10:42:07;;;;;;;11.80;5.43;;;;;;;28.05;91.32;101405.09;20935928;28;20405;-76
2023/10/17 10:52:34;;;;;;;;;;;;;;;27.82;91.56;101398.03;20945357;28;20060;-75
2023/10/17 11:02:59;;;;;;;11.20;5.72;;;;;;;27.53;90.28;101387.59;20916657;28;20296;-76
2023/10/17 11:13:31;;;;;;;13.60;6.00;;;;;;;27.62;90.23;101390.81;20911989;28;20122;-76
2023/10/17 11:23:59;;;;;;;11.77;6.05;;;;;;;27.42;89.95;101381.75;20902533;28;20053;-76
2023/10/17 11:34:31;;;;;;;11.05;5.63;;;;;;;27.17;92.21;101377.41;20953013;28;20045;-75
2023/10/17 11:44:55;;;;;;;16.45;6.93;;;;;;;26.93;94.43;101375.72;20979357;28;20049;-76
2023/10/17 11:55:20;;;;;;;11.02;5.70;;;;;;;26.72;97.14;101369.34;20966058;28;20045;-76
2023/10/17 12:05:42;;;;;;;17.77;5.93;;;;;;;26.79;97.05;101360.00;20930369;28;20529;-76
2023/10/17 12:16:09;;;;;;;14.70;7.22;;;;;;;26.83;97.81;101355.38;20945113;28;20045;-76
2023/10/17 12:26:32;;;;;;;13.33;6.57;;;;;;;26.69;100.00;101352.34;20977568;28;20052;-76
2023/10/17 12:36:56;;;;;;;14.70;7.20;;;;;;;26.62;100.00;101351.72;20904495;28;20152;-76
2023/10/17 12:47:20;;;;;;;13.65;6.35;;;;;;;26.61;100.00;101344.53;20959144;28;20048;-75
2023/10/17 12:57:44;;;;;;;16.00;7.57;;;;;;;26.40;100.00;101337.28;20948120;28;20041;-76
2023/10/17 13:08:07;;;;;;;14.20;7.57;;;;;;;26.51;100.00;101333.22;20923224;28;20421;-76
2023/10/17 13:18:35;;;;;;;15.23;7.43;;;;;;;26.16;100.00;101328.31;20936539;28;20052;-76
2023/10/17 13:28:58;;;;;;;18.20;7.65;;;;;;;26.05;100.00;101323.31;20943565;28;20040;-77
2023/10/17 13:39:24;;;;;;;12.55;7.38;;;;;;;25.80;100.00;101326.06;20936233;28;20052;-76
2023/10/17 13:49:47;;;;;;;15.00;7.82;;;;;;;25.57;100.00;101319.75;20946881;28;20106;-75
2023/10/17 14:00:18;;;;;;;12.73;7.75;;;;;;;25.37;100.00;101321.38;20881353;28;20676;-76
2023/10/17 14:10:43;;;;;;;18.58;7.88;;;;;;;25.23;100.00;101321.00;20919930;28;20106;-74
2023/10/17 14:21:16;;;;;;;16.23;7.57;;;;;;;24.99;100.00;101314.66;20966034;28;20045;-76
2023/10/17 14:31:39;;;;;;;15.07;6.97;;;;;;;24.88;100.00;101303.28;20958560;28;20094;-76
2023/10/17 14:42:04;;;;;;;14.60;7.97;;;;;;;24.75;100.00;101310.03;20922079;28;20045;-76
2023/10/17 14:52:27;;;;;;;13.60;6.60;;;;;;;24.51;100.00;101306.38;20887555;28;20523;-76
2023/10/17 15:02:51;;;;;;;16.45;7.45;;;;;;;24.37;100.00;101310.44;20922409;28;20061;-75
2023/10/17 15:13:13;;;;;;;13.38;7.65;;;;;;;24.16;100.00;101314.69;20902438;28;20416;-75
2023/10/17 15:23:40;;;;;;;14.98;9.23;;;;;;;23.90;100.00;101311.91;20945632;28;20044;-76
2023/10/17 15:34:04;;;;;;;17.98;7.38;;;;;;;23.65;100.00;101304.56;20898438;28;20044;-75
2023/10/17 15:44:35;;;;;;;12.45;7.18;;;;;;;23.39;100.00;101313.38;20939300;28;20511;-74
2023/10/17 15:54:57;;;;;;;14.93;7.95;;;;;;;23.13;100.00;101315.03;20931172;28;20040;-75
2023/10/17 16:05:23;;;;;;;16.35;7.88;;;;;;;22.91;100.00;101325.47;20880801;28;20045;-75
2023/10/17 16:15:45;;;;;;;15.63;9.13;;;;;;;22.65;100.00;101321.63;20906666;28;20045;-74
2023/10/17 16:26:14;;;;;;;14.05;7.75;;;;;;;22.42;100.00;101326.69;20942300;28;20447;-75
2023/10/17 16:36:36;;;;;;;;;;;;;;;22.24;100.00;101333.41;20910149;28;20074;-74
2023/10/17 16:47:01;;;;;;;16.90;8.02;;;;;;;22.10;100.00;101356.16;20942066;28;19926;-74
2023/10/17 16:57:23;;;;;;;11.52;6.72;;;;;;;21.81;100.00;101349.56;20916615;28;20114;-74
2023/10/17 17:07:47;;;;;;;15.52;7.72;;;;;;;21.71;100.00;101358.75;20937746;28;20043;-73
2023/10/17 17:18:10;;;;;;;12.68;7.63;;;;;;;21.64;100.00;101358.91;20906731;28;20699;-75
2023/10/17 17:28:35;;;;;;;10.13;6.63;;;;;;;21.50;100.00;101355.59;20915594;28;20054;-75
2023/10/17 17:38:57;;;;;;;13.15;7.07;;;;;;;21.47;100.00;101362.78;20929475;28;20036;-75
2023/10/17 17:49:21;;;;;;;10.80;7.00;;;;;;;21.41;100.00;101362.91;20971961;28;20427;-76
2023/10/17 17:59:44;;;;;;;10.80;6.22;;;;;;;21.29;100.00;101351.53;20927199;28;20085;-76
2023/10/17 18:10:09;;;;;;;11.95;7.00;;;;;;;21.18;100.00;101324.00;20920720;28;20691;-75
2023/10/17 18:20:32;;;;;;;11.60;6.82;;;;;;;20.93;100.00;101335.16;20914862;28;20060;-75
2023/10/17 18:31:07;;;;;;;11.27;7.28;;;;;;;20.83;100.00;101328.16;20922400;28;20061;-77
2023/10/17 18:41:30;;;;;;;13.73;6.93;;;;;;;20.68;100.00;101345.41;20937757;28;20053;-76
2023/10/17 18:51:57;;;;;;;13.90;6.93;;;;;;;20.61;100.00;101341.06;20920667;28;20540;-74
2023/10/17 19:02:20;;;;;;;11.80;6.82;;;;;;;20.50;100.00;101332.31;20918637;28;20060;-75
2023/10/17 19:12:44;;;;;;;10.77;5.88;;;;;;;20.52;100.00;101327.81;20923483;28;20053;-74
2023/10/17 19:23:07;;;;;;;14.60;9.07;;;;;;;20.41;100.00;101324.41;20928468;28;20072;-74
2023/10/17 19:33:32;;;;;;;12.32;7.32;;;;;;;20.07;100.00;101331.16;20944031;28;20083;-74
2023/10/17 19:43:54;;;;;;;12.10;7.38;;;;;;;20.01;100.00;101328.56;20889391;28;20045;-75
2023/10/17 19:54:18;;;;;;;12.60;7.18;;;;;;;20.02;100.00;101341.91;20905484;28;20045;-76
2023/10/17 20:04:41;;;;;;;10.75;7.47;;;;;;;19.90;100.00;101337.63;20979753;28;20109;-75
2023/10/17 20:15:08;;;;;;;10.77;7.18;;;;;;;19.76;100.00;101334.22;20972685;28;20052;-76
2023/10/17 20:25:30;;;;;;;12.27;7.25;;;;;;;19.66;100.00;101319.19;20921698;28;20660;-75
2023/10/17 20:35:56;;;;;;;11.75;7.18;;;;;;;19.48;100.00;101303.38;20947029;28;20181;-75
2023/10/17 20:46:19;;;;;;;12.32;7.07;;;;;;;19.31;100.00;101299.94;20976867;28;20056;-75
2023/10/17 20:56:45;;;;;;;12.75;7.20;;;;;;;19.27;100.00;101291.06;20976689;28;20053;-75
2023/10/17 21:07:08;;;;;;;12.13;7.13;;;;;;;19.26;100.00;101283.94;20959319;28;20051;-76
2023/10/17 21:17:32;;;;;;;11.60;7.22;;;;;;;19.19;100.00;101263.50;20961982;28;20056;-76
2023/10/17 21:27:54;;;;;;;12.82;8.10;;;;;;;19.16;100.00;101258.19;20940765;28;20044;-75
2023/10/17 21:38:19;;;;;;;12.38;7.78;;;;;;;18.96;100.00;101250.41;20972139;28;20492;-76
2023/10/17 21:48:45;;;;;;;19.33;7.85;;;;;;;18.77;100.00;101234.56;20976143;28;20163;-75
2023/10/17 21:59:10;;;;;;;12.50;7.80;;;;;;;18.76;100.00;101239.03;20956067;28;20057;-75
2023/10/17 22:09:36;;;;;;;12.82;7.25;;;;;;;18.66;100.00;101246.25;20967964;28;20145;-75
2023/10/17 22:20:02;;;;;;;13.02;8.27;;;;;;;18.71;100.00;101235.47;20966800;28;20582;-76
2023/10/17 22:30:24;;;;;;;11.80;7.45;;;;;;;18.59;100.00;101241.84;20954885;28;20106;-76
2023/10/17 22:40:49;;;;;;;12.43;8.05;;;;;;;18.54;100.00;101245.44;20921219;28;20048;-75
2023/10/17 22:51:13;;;;;;;12.52;7.97;;;;;;;18.50;100.00;101236.56;20944041;28;20120;-75
2023/10/17 23:01:37;;;;;;;16.35;8.52;;;;;;;18.45;100.00;101235.69;20958395;28;20384;-76
2023/10/17 23:12:00;;;;;;;12.45;8.27;;;;;;;18.52;100.00;101208.00;20948864;28;20102;-76
2023/10/17 23:22:25;;;;;;;13.65;7.40;;;;;;;18.38;100.00;101182.31;20979209;28;20131;-75
2023/10/17 23:32:47;;;;;;;11.07;7.40;;;;;;;18.35;100.00;101168.97;20952938;28;20094;-75
2023/10/17 23:43:13;;;;;;;13.23;7.15;;;;;;;18.12;100.00;101163.81;20989237;28;20057;-76
2023/10/17 23:53:36;;;;;;;12.75;7.00;;;;;;;18.06;100.00;101162.09;20977764;28;20051;-76
